sensor_id;sensor_type;location;lat;lon;timestamp;P1;durP1;ratioP1;P2;durP2;ratioP2
68319;SDS011;55168;51.120;17.024;2024-02-26T00:00:00;34.2;;;21.9;;
68319;SDS011;55168;51.120;17.024;2024-02-26T00:01:00;34.2;;;21.9;;
68319;SDS011;55168;51.120;17.024;2024-02-26T00:02:00;34.2;;;21.9;;
68319;SDS011;55168;51.120;17.024;2024-02-26T00:03:00;34.2;;;21.9;;
68319;SDS011;55168;51.120;17.024;2024-02-26T00:04:00;34.2;;;21.9;;
68319;SDS011;55168;51.120;17.024;2024-02-26T00:05:00;29.0;;;19.2;;
68319;SDS011;55168;51.120;17.024;2024-02-26T00:06:00;29.0;;;19.2;;
68319;SDS011;55168;51.120;17.024;2024-02-26T00:07:00;29.0;;;19.2;;
68319;SDS011;55168;51.120;17.024;2024-02-26T00:08:00;29.0;;;19.2;;
68319;SDS011;55168;51.120;17.024;2024-02-26T00:09:00;29.0;;;19.2;;
68319;SDS011;55168;51.120;17.024;2024-02-26T00:10:00;34.3;;;21.6;;
68319;SDS011;55168;51.120;17.024;2024-02-26T00:11:00;34.3;;;21.6;;
68319;SDS011;55168;51.120;17.024;2024-02-26T00:12:00;34.3;;;21.6;;
68319;SDS011;55168;51.120;17.024;2024-02-26T00:13:00;34.3;;;21.6;;
68319;SDS011;55168;51.120;17.024;2024-02-26T00:14:00;34.3;;;21.6;;
68319;SDS011;55168;51.120;17.024;2024-02-26T00:15:00;33.4;;;22.9;;
68319;SDS011;55168;51.120;17.024;2024-02-26T00:16:00;33.4;;;22.9;;
68319;SDS011;55168;51.120;17.024;2024-02-26T00:17:00;33.4;;;22.9;;
68319;SDS011;55168;51.120;17.024;2024-02-26T00:18:00;33.4;;;22.9;;
68319;SDS011;55168;51.120;17.024;2024-02-26T00:19:00;33.4;;;22.9;;
68319;SDS011;55168;51.120;17.024;2024-02-26T00:20:02;34.2;;;23.6;;
68319;SDS011;55168;51.120;17.024;2024-02-26T00:21:00;34.2;;;23.6;;
68319;SDS011;55168;51.120;17.024;2024-02-26T00:22:00;34.2;;;23.6;;
68319;SDS011;55168;51.120;17.024;2024-02-26T00:23:00;34.2;;;23.6;;
68319;SDS011;55168;51.120;17.024;2024-02-26T00:24:00;34.2;;;23.6;;
68319;SDS011;55168;51.120;17.024;2024-02-26T00:25:00;38.3;;;25.6;;
68319;SDS011;55168;51.120;17.024;2024-02-26T00:26:00;38.3;;;25.6;;
68319;SDS011;55168;51.120;17.024;2024-02-26T00:27:00;38.3;;;25.6;;
68319;SDS011;55168;51.120;17.024;2024-02-26T00:28:00;38.3;;;25.6;;
68319;SDS011;55168;51.120;17.024;2024-02-26T00:29:00;38.3;;;25.6;;
68319;SDS011;55168;51.120;17.024;2024-02-26T00:30:00;38.0;;;26.0;;
68319;SDS011;55168;51.120;17.024;2024-02-26T00:31:00;38.0;;;26.0;;
68319;SDS011;55168;51.120;17.024;2024-02-26T00:32:00;38.0;;;26.0;;
68319;SDS011;55168;51.120;17.024;2024-02-26T00:33:00;38.0;;;26.0;;
68319;SDS011;55168;51.120;17.024;2024-02-26T00:34:00;38.0;;;26.0;;
68319;SDS011;55168;51.120;17.024;2024-02-26T00:35:00;36.0;;;24.8;;
68319;SDS011;55168;51.120;17.024;2024-02-26T00:36:00;36.0;;;24.8;;
68319;SDS011;55168;51.120;17.024;2024-02-26T00:37:01;36.0;;;24.8;;
68319;SDS011;55168;51.120;17.024;2024-02-26T00:38:00;36.0;;;24.8;;
68319;SDS011;55168;51.120;17.024;2024-02-26T00:39:00;36.0;;;24.8;;
68319;SDS011;55168;51.120;17.024;2024-02-26T00:40:00;36.3;;;24.9;;
68319;SDS011;55168;51.120;17.024;2024-02-26T00:41:00;36.3;;;24.9;;
68319;SDS011;55168;51.120;17.024;2024-02-26T00:42:00;36.3;;;24.9;;
68319;SDS011;55168;51.120;17.024;2024-02-26T00:43:00;36.3;;;24.9;;
68319;SDS011;55168;51.120;17.024;2024-02-26T00:44:00;36.3;;;24.9;;
68319;SDS011;55168;51.120;17.024;2024-02-26T00:45:00;39.4;;;26.2;;
68319;SDS011;55168;51.120;17.024;2024-02-26T00:46:00;39.4;;;26.2;;
68319;SDS011;55168;51.120;17.024;2024-02-26T00:47:00;39.4;;;26.2;;
68319;SDS011;55168;51.120;17.024;2024-02-26T00:48:00;39.4;;;26.2;;
68319;SDS011;55168;51.120;17.024;2024-02-26T00:49:00;39.4;;;26.2;;
68319;SDS011;55168;51.120;17.024;2024-02-26T00:50:00;40.1;;;25.8;;
68319;SDS011;55168;51.120;17.024;2024-02-26T00:51:00;40.1;;;25.8;;
68319;SDS011;55168;51.120;17.024;2024-02-26T00:52:00;40.1;;;25.8;;
68319;SDS011;55168;51.120;17.024;2024-02-26T00:53:01;40.1;;;25.8;;
68319;SDS011;55168;51.120;17.024;2024-02-26T00:54:00;40.1;;;25.8;;
68319;SDS011;55168;51.120;17.024;2024-02-26T00:55:01;40.1;;;26.8;;
68319;SDS011;55168;51.120;17.024;2024-02-26T00:56:00;40.1;;;26.8;;
68319;SDS011;55168;51.120;17.024;2024-02-26T00:57:00;40.1;;;26.8;;
68319;SDS011;55168;51.120;17.024;2024-02-26T00:58:00;40.1;;;26.8;;
68319;SDS011;55168;51.120;17.024;2024-02-26T00:59:00;38.7;;;26.6;;
68319;SDS011;55168;51.120;17.024;2024-02-26T01:00:00;38.7;;;26.6;;
68319;SDS011;55168;51.120;17.024;2024-02-26T01:01:00;38.7;;;26.6;;
68319;SDS011;55168;51.120;17.024;2024-02-26T01:02:00;38.7;;;26.6;;
68319;SDS011;55168;51.120;17.024;2024-02-26T01:03:00;38.7;;;26.6;;
68319;SDS011;55168;51.120;17.024;2024-02-26T01:04:00;30.1;;;20.1;;
68319;SDS011;55168;51.120;17.024;2024-02-26T01:05:00;30.1;;;20.1;;
68319;SDS011;55168;51.120;17.024;2024-02-26T01:06:00;30.1;;;20.1;;
68319;SDS011;55168;51.120;17.024;2024-02-26T01:07:00;30.1;;;20.1;;
68319;SDS011;55168;51.120;17.024;2024-02-26T01:08:00;30.1;;;20.1;;
68319;SDS011;55168;51.120;17.024;2024-02-26T01:09:00;33.5;;;20.1;;
68319;SDS011;55168;51.120;17.024;2024-02-26T01:10:00;33.5;;;20.1;;
68319;SDS011;55168;51.120;17.024;2024-02-26T01:11:00;33.5;;;20.1;;
68319;SDS011;55168;51.120;17.024;2024-02-26T01:12:00;33.5;;;20.1;;
68319;SDS011;55168;51.120;17.024;2024-02-26T01:13:01;33.5;;;20.1;;
68319;SDS011;55168;51.120;17.024;2024-02-26T01:14:00;29.2;;;19.5;;
68319;SDS011;55168;51.120;17.024;2024-02-26T01:15:01;29.2;;;19.5;;
68319;SDS011;55168;51.120;17.024;2024-02-26T01:16:00;29.2;;;19.5;;
68319;SDS011;55168;51.120;17.024;2024-02-26T01:17:00;29.2;;;19.5;;
68319;SDS011;55168;51.120;17.024;2024-02-26T01:18:00;29.2;;;19.5;;
68319;SDS011;55168;51.120;17.024;2024-02-26T01:19:00;28.6;;;18.5;;
68319;SDS011;55168;51.120;17.024;2024-02-26T01:20:00;28.6;;;18.5;;
68319;SDS011;55168;51.120;17.024;2024-02-26T01:21:00;28.6;;;18.5;;
68319;SDS011;55168;51.120;17.024;2024-02-26T01:22:00;28.6;;;18.5;;
68319;SDS011;55168;51.120;17.024;2024-02-26T01:23:00;28.6;;;18.5;;
68319;SDS011;55168;51.120;17.024;2024-02-26T01:24:00;28.7;;;18.9;;
68319;SDS011;55168;51.120;17.024;2024-02-26T01:25:00;28.7;;;18.9;;
68319;SDS011;55168;51.120;17.024;2024-02-26T01:26:00;28.7;;;18.9;;
68319;SDS011;55168;51.120;17.024;2024-02-26T01:27:00;28.7;;;18.9;;
68319;SDS011;55168;51.120;17.024;2024-02-26T01:28:00;28.7;;;18.9;;
68319;SDS011;55168;51.120;17.024;2024-02-26T01:29:00;26.2;;;17.8;;
68319;SDS011;55168;51.120;17.024;2024-02-26T01:30:00;26.2;;;17.8;;
68319;SDS011;55168;51.120;17.024;2024-02-26T01:31:00;26.2;;;17.8;;
68319;SDS011;55168;51.120;17.024;2024-02-26T01:32:00;26.2;;;17.8;;
68319;SDS011;55168;51.120;17.024;2024-02-26T01:33:00;26.2;;;17.8;;
68319;SDS011;55168;51.120;17.024;2024-02-26T01:34:01;27.1;;;17.8;;
68319;SDS011;55168;51.120;17.024;2024-02-26T01:35:00;27.1;;;17.8;;
68319;SDS011;55168;51.120;17.024;2024-02-26T01:36:00;27.1;;;17.8;;
68319;SDS011;55168;51.120;17.024;2024-02-26T01:37:00;27.1;;;17.8;;
68319;SDS011;55168;51.120;17.024;2024-02-26T01:38:00;27.1;;;17.8;;
68319;SDS011;55168;51.120;17.024;2024-02-26T01:39:00;27.6;;;18.3;;
68319;SDS011;55168;51.120;17.024;2024-02-26T01:40:00;27.6;;;18.3;;
68319;SDS011;55168;51.120;17.024;2024-02-26T01:41:00;27.6;;;18.3;;
68319;SDS011;55168;51.120;17.024;2024-02-26T01:42:00;27.6;;;18.3;;
68319;SDS011;55168;51.120;17.024;2024-02-26T01:43:00;27.6;;;18.3;;
68319;SDS011;55168;51.120;17.024;2024-02-26T01:44:00;25.1;;;17.8;;
68319;SDS011;55168;51.120;17.024;2024-02-26T01:45:00;25.1;;;17.8;;
68319;SDS011;55168;51.120;17.024;2024-02-26T01:46:00;25.1;;;17.8;;
68319;SDS011;55168;51.120;17.024;2024-02-26T01:47:00;25.1;;;17.8;;
68319;SDS011;55168;51.120;17.024;2024-02-26T01:48:00;25.1;;;17.8;;
68319;SDS011;55168;51.120;17.024;2024-02-26T01:49:01;26.1;;;18.2;;
68319;SDS011;55168;51.120;17.024;2024-02-26T01:50:00;26.1;;;18.2;;
68319;SDS011;55168;51.120;17.024;2024-02-26T01:51:00;26.1;;;18.2;;
68319;SDS011;55168;51.120;17.024;2024-02-26T01:52:00;26.1;;;18.2;;
68319;SDS011;55168;51.120;17.024;2024-02-26T01:53:00;26.1;;;18.2;;
68319;SDS011;55168;51.120;17.024;2024-02-26T01:54:02;24.9;;;17.1;;
68319;SDS011;55168;51.120;17.024;2024-02-26T01:55:00;24.9;;;17.1;;
68319;SDS011;55168;51.120;17.024;2024-02-26T01:56:00;24.9;;;17.1;;
68319;SDS011;55168;51.120;17.024;2024-02-26T01:57:01;24.9;;;17.1;;
68319;SDS011;55168;51.120;17.024;2024-02-26T01:58:00;24.9;;;17.1;;
68319;SDS011;55168;51.120;17.024;2024-02-26T01:59:01;26.6;;;18.3;;
68319;SDS011;55168;51.120;17.024;2024-02-26T02:00:00;26.6;;;18.3;;
68319;SDS011;55168;51.120;17.024;2024-02-26T02:01:01;26.6;;;18.3;;
68319;SDS011;55168;51.120;17.024;2024-02-26T02:02:03;26.6;;;18.3;;
68319;SDS011;55168;51.120;17.024;2024-02-26T02:03:01;26.6;;;18.3;;
68319;SDS011;55168;51.120;17.024;2024-02-26T02:04:00;25.4;;;18.5;;
68319;SDS011;55168;51.120;17.024;2024-02-26T02:05:00;25.4;;;18.5;;
68319;SDS011;55168;51.120;17.024;2024-02-26T02:06:00;25.4;;;18.5;;
68319;SDS011;55168;51.120;17.024;2024-02-26T02:07:01;25.4;;;18.5;;
68319;SDS011;55168;51.120;17.024;2024-02-26T02:08:00;25.4;;;18.5;;
68319;SDS011;55168;51.120;17.024;2024-02-26T02:09:00;27.3;;;18.8;;
68319;SDS011;55168;51.120;17.024;2024-02-26T02:10:00;27.3;;;18.8;;
68319;SDS011;55168;51.120;17.024;2024-02-26T02:11:00;27.3;;;18.8;;
68319;SDS011;55168;51.120;17.024;2024-02-26T02:12:00;27.3;;;18.8;;
68319;SDS011;55168;51.120;17.024;2024-02-26T02:13:00;27.3;;;18.8;;
68319;SDS011;55168;51.120;17.024;2024-02-26T02:14:00;25.5;;;18.3;;
68319;SDS011;55168;51.120;17.024;2024-02-26T02:15:00;25.5;;;18.3;;
68319;SDS011;55168;51.120;17.024;2024-02-26T02:16:00;25.5;;;18.3;;
68319;SDS011;55168;51.120;17.024;2024-02-26T02:17:00;25.5;;;18.3;;
68319;SDS011;55168;51.120;17.024;2024-02-26T02:18:00;25.5;;;18.3;;
68319;SDS011;55168;51.120;17.024;2024-02-26T02:19:00;26.4;;;18.2;;
68319;SDS011;55168;51.120;17.024;2024-02-26T02:20:00;26.4;;;18.2;;
68319;SDS011;55168;51.120;17.024;2024-02-26T02:21:01;26.4;;;18.2;;
68319;SDS011;55168;51.120;17.024;2024-02-26T02:22:00;26.4;;;18.2;;
68319;SDS011;55168;51.120;17.024;2024-02-26T02:23:00;26.4;;;18.2;;
68319;SDS011;55168;51.120;17.024;2024-02-26T02:24:00;29.0;;;19.5;;
68319;SDS011;55168;51.120;17.024;2024-02-26T02:25:00;29.0;;;19.5;;
68319;SDS011;55168;51.120;17.024;2024-02-26T02:26:00;29.0;;;19.5;;
68319;SDS011;55168;51.120;17.024;2024-02-26T02:27:00;29.0;;;19.5;;
68319;SDS011;55168;51.120;17.024;2024-02-26T02:28:00;29.0;;;19.5;;
68319;SDS011;55168;51.120;17.024;2024-02-26T02:29:00;30.9;;;20.6;;
68319;SDS011;55168;51.120;17.024;2024-02-26T02:30:00;30.9;;;20.6;;
68319;SDS011;55168;51.120;17.024;2024-02-26T02:31:00;30.9;;;20.6;;
68319;SDS011;55168;51.120;17.024;2024-02-26T02:32:01;30.9;;;20.6;;
68319;SDS011;55168;51.120;17.024;2024-02-26T02:33:00;30.9;;;20.6;;
68319;SDS011;55168;51.120;17.024;2024-02-26T02:34:00;31.9;;;22.8;;
68319;SDS011;55168;51.120;17.024;2024-02-26T02:35:00;31.9;;;22.8;;
68319;SDS011;55168;51.120;17.024;2024-02-26T02:36:00;31.9;;;22.8;;
68319;SDS011;55168;51.120;17.024;2024-02-26T02:37:00;31.9;;;22.8;;
68319;SDS011;55168;51.120;17.024;2024-02-26T02:38:00;31.9;;;22.8;;
68319;SDS011;55168;51.120;17.024;2024-02-26T02:39:00;36.8;;;26.7;;
68319;SDS011;55168;51.120;17.024;2024-02-26T02:40:00;36.8;;;26.7;;
68319;SDS011;55168;51.120;17.024;2024-02-26T02:41:00;36.8;;;26.7;;
68319;SDS011;55168;51.120;17.024;2024-02-26T02:42:00;36.8;;;26.7;;
68319;SDS011;55168;51.120;17.024;2024-02-26T02:43:00;36.8;;;26.7;;
68319;SDS011;55168;51.120;17.024;2024-02-26T02:44:00;33.2;;;25.4;;
68319;SDS011;55168;51.120;17.024;2024-02-26T02:45:00;33.2;;;25.4;;
68319;SDS011;55168;51.120;17.024;2024-02-26T02:46:00;33.2;;;25.4;;
68319;SDS011;55168;51.120;17.024;2024-02-26T02:47:00;33.2;;;25.4;;
68319;SDS011;55168;51.120;17.024;2024-02-26T02:48:00;33.2;;;25.4;;
68319;SDS011;55168;51.120;17.024;2024-02-26T02:49:00;33.1;;;24.8;;
68319;SDS011;55168;51.120;17.024;2024-02-26T02:50:00;33.1;;;24.8;;
68319;SDS011;55168;51.120;17.024;2024-02-26T02:51:00;33.1;;;24.8;;
68319;SDS011;55168;51.120;17.024;2024-02-26T02:52:00;33.1;;;24.8;;
68319;SDS011;55168;51.120;17.024;2024-02-26T02:53:00;33.1;;;24.8;;
68319;SDS011;55168;51.120;17.024;2024-02-26T02:54:00;27.7;;;20.2;;
68319;SDS011;55168;51.120;17.024;2024-02-26T02:55:01;27.7;;;20.2;;
68319;SDS011;55168;51.120;17.024;2024-02-26T02:56:00;27.7;;;20.2;;
68319;SDS011;55168;51.120;17.024;2024-02-26T02:57:00;27.7;;;20.2;;
68319;SDS011;55168;51.120;17.024;2024-02-26T02:58:00;27.7;;;20.2;;
68319;SDS011;55168;51.120;17.024;2024-02-26T02:59:00;28.5;;;20.8;;
68319;SDS011;55168;51.120;17.024;2024-02-26T03:00:00;28.5;;;20.8;;
68319;SDS011;55168;51.120;17.024;2024-02-26T03:01:00;28.5;;;20.8;;
68319;SDS011;55168;51.120;17.024;2024-02-26T03:02:00;28.5;;;20.8;;
68319;SDS011;55168;51.120;17.024;2024-02-26T03:03:00;28.5;;;20.8;;
68319;SDS011;55168;51.120;17.024;2024-02-26T03:04:00;29.0;;;19.8;;
68319;SDS011;55168;51.120;17.024;2024-02-26T03:05:00;29.0;;;19.8;;
68319;SDS011;55168;51.120;17.024;2024-02-26T03:06:00;29.0;;;19.8;;
68319;SDS011;55168;51.120;17.024;2024-02-26T03:07:00;29.0;;;19.8;;
68319;SDS011;55168;51.120;17.024;2024-02-26T03:08:00;29.0;;;19.8;;
68319;SDS011;55168;51.120;17.024;2024-02-26T03:09:00;28.8;;;20.0;;
68319;SDS011;55168;51.120;17.024;2024-02-26T03:10:00;28.8;;;20.0;;
68319;SDS011;55168;51.120;17.024;2024-02-26T03:11:00;28.8;;;20.0;;
68319;SDS011;55168;51.120;17.024;2024-02-26T03:12:00;28.8;;;20.0;;
68319;SDS011;55168;51.120;17.024;2024-02-26T03:13:00;28.8;;;20.0;;
68319;SDS011;55168;51.120;17.024;2024-02-26T03:14:00;26.8;;;19.7;;
68319;SDS011;55168;51.120;17.024;2024-02-26T03:15:01;26.8;;;19.7;;
68319;SDS011;55168;51.120;17.024;2024-02-26T03:16:05;26.8;;;19.7;;
68319;SDS011;55168;51.120;17.024;2024-02-26T03:17:00;26.8;;;19.7;;
68319;SDS011;55168;51.120;17.024;2024-02-26T03:18:00;26.8;;;19.7;;
68319;SDS011;55168;51.120;17.024;2024-02-26T03:19:00;27.1;;;19.2;;
68319;SDS011;55168;51.120;17.024;2024-02-26T03:20:00;27.1;;;19.2;;
68319;SDS011;55168;51.120;17.024;2024-02-26T03:21:00;27.1;;;19.2;;
68319;SDS011;55168;51.120;17.024;2024-02-26T03:22:00;27.1;;;19.2;;
68319;SDS011;55168;51.120;17.024;2024-02-26T03:23:00;27.1;;;19.2;;
68319;SDS011;55168;51.120;17.024;2024-02-26T03:24:00;30.1;;;20.0;;
68319;SDS011;55168;51.120;17.024;2024-02-26T03:25:00;30.1;;;20.0;;
68319;SDS011;55168;51.120;17.024;2024-02-26T03:26:00;30.1;;;20.0;;
68319;SDS011;55168;51.120;17.024;2024-02-26T03:27:00;30.1;;;20.0;;
68319;SDS011;55168;51.120;17.024;2024-02-26T03:28:00;30.1;;;20.0;;
68319;SDS011;55168;51.120;17.024;2024-02-26T03:29:00;28.8;;;19.8;;
68319;SDS011;55168;51.120;17.024;2024-02-26T03:30:00;28.8;;;19.8;;
68319;SDS011;55168;51.120;17.024;2024-02-26T03:31:01;28.8;;;19.8;;
68319;SDS011;55168;51.120;17.024;2024-02-26T03:32:00;28.8;;;19.8;;
68319;SDS011;55168;51.120;17.024;2024-02-26T03:33:00;28.8;;;19.8;;
68319;SDS011;55168;51.120;17.024;2024-02-26T03:34:00;24.9;;;18.3;;
68319;SDS011;55168;51.120;17.024;2024-02-26T03:35:00;24.9;;;18.3;;
68319;SDS011;55168;51.120;17.024;2024-02-26T03:36:00;24.9;;;18.3;;
68319;SDS011;55168;51.120;17.024;2024-02-26T03:37:00;24.9;;;18.3;;
68319;SDS011;55168;51.120;17.024;2024-02-26T03:38:01;24.9;;;18.3;;
68319;SDS011;55168;51.120;17.024;2024-02-26T03:39:00;24.3;;;17.9;;
68319;SDS011;55168;51.120;17.024;2024-02-26T03:40:00;24.3;;;17.9;;
68319;SDS011;55168;51.120;17.024;2024-02-26T03:41:00;24.3;;;17.9;;
68319;SDS011;55168;51.120;17.024;2024-02-26T03:42:00;24.3;;;17.9;;
68319;SDS011;55168;51.120;17.024;2024-02-26T03:43:00;24.3;;;17.9;;
68319;SDS011;55168;51.120;17.024;2024-02-26T03:44:00;26.9;;;19.3;;
68319;SDS011;55168;51.120;17.024;2024-02-26T03:45:00;26.9;;;19.3;;
68319;SDS011;55168;51.120;17.024;2024-02-26T03:46:00;26.9;;;19.3;;
68319;SDS011;55168;51.120;17.024;2024-02-26T03:47:00;26.9;;;19.3;;
68319;SDS011;55168;51.120;17.024;2024-02-26T03:48:00;26.9;;;19.3;;
68319;SDS011;55168;51.120;17.024;2024-02-26T03:49:00;26.1;;;20.3;;
68319;SDS011;55168;51.120;17.024;2024-02-26T03:50:00;26.1;;;20.3;;
68319;SDS011;55168;51.120;17.024;2024-02-26T03:51:00;26.1;;;20.3;;
68319;SDS011;55168;51.120;17.024;2024-02-26T03:52:00;26.1;;;20.3;;
68319;SDS011;55168;51.120;17.024;2024-02-26T03:53:00;26.1;;;20.3;;
68319;SDS011;55168;51.120;17.024;2024-02-26T03:54:00;28.4;;;19.9;;
68319;SDS011;55168;51.120;17.024;2024-02-26T03:55:00;28.4;;;19.9;;
68319;SDS011;55168;51.120;17.024;2024-02-26T03:56:04;28.4;;;19.9;;
68319;SDS011;55168;51.120;17.024;2024-02-26T03:57:00;28.4;;;19.9;;
68319;SDS011;55168;51.120;17.024;2024-02-26T03:58:00;28.4;;;19.9;;
68319;SDS011;55168;51.120;17.024;2024-02-26T03:59:00;29.5;;;20.8;;
68319;SDS011;55168;51.120;17.024;2024-02-26T04:00:00;29.5;;;20.8;;
68319;SDS011;55168;51.120;17.024;2024-02-26T04:01:00;29.5;;;20.8;;
68319;SDS011;55168;51.120;17.024;2024-02-26T04:02:00;29.5;;;20.8;;
68319;SDS011;55168;51.120;17.024;2024-02-26T04:03:00;29.5;;;20.8;;
68319;SDS011;55168;51.120;17.024;2024-02-26T04:04:00;28.3;;;19.7;;
68319;SDS011;55168;51.120;17.024;2024-02-26T04:05:00;28.3;;;19.7;;
68319;SDS011;55168;51.120;17.024;2024-02-26T04:06:00;28.3;;;19.7;;
68319;SDS011;55168;51.120;17.024;2024-02-26T04:07:00;28.3;;;19.7;;
68319;SDS011;55168;51.120;17.024;2024-02-26T04:08:00;28.3;;;19.7;;
68319;SDS011;55168;51.120;17.024;2024-02-26T04:09:00;27.4;;;19.5;;
68319;SDS011;55168;51.120;17.024;2024-02-26T04:10:00;27.4;;;19.5;;
68319;SDS011;55168;51.120;17.024;2024-02-26T04:11:00;27.4;;;19.5;;
68319;SDS011;55168;51.120;17.024;2024-02-26T04:12:00;27.4;;;19.5;;
68319;SDS011;55168;51.120;17.024;2024-02-26T04:13:00;27.4;;;19.5;;
68319;SDS011;55168;51.120;17.024;2024-02-26T04:14:00;27.6;;;18.9;;
68319;SDS011;55168;51.120;17.024;2024-02-26T04:15:00;27.6;;;18.9;;
68319;SDS011;55168;51.120;17.024;2024-02-26T04:16:00;27.6;;;18.9;;
68319;SDS011;55168;51.120;17.024;2024-02-26T04:17:00;27.6;;;18.9;;
68319;SDS011;55168;51.120;17.024;2024-02-26T04:18:00;27.6;;;18.9;;
68319;SDS011;55168;51.120;17.024;2024-02-26T04:19:00;25.6;;;19.3;;
68319;SDS011;55168;51.120;17.024;2024-02-26T04:20:00;25.6;;;19.3;;
68319;SDS011;55168;51.120;17.024;2024-02-26T04:21:00;25.6;;;19.3;;
68319;SDS011;55168;51.120;17.024;2024-02-26T04:22:00;25.6;;;19.3;;
68319;SDS011;55168;51.120;17.024;2024-02-26T04:23:00;25.6;;;19.3;;
68319;SDS011;55168;51.120;17.024;2024-02-26T04:24:00;28.2;;;18.6;;
68319;SDS011;55168;51.120;17.024;2024-02-26T04:25:00;28.2;;;18.6;;
68319;SDS011;55168;51.120;17.024;2024-02-26T04:26:00;28.2;;;18.6;;
68319;SDS011;55168;51.120;17.024;2024-02-26T04:27:00;28.2;;;18.6;;
68319;SDS011;55168;51.120;17.024;2024-02-26T04:28:00;28.2;;;18.6;;
68319;SDS011;55168;51.120;17.024;2024-02-26T04:29:00;25.5;;;18.3;;
68319;SDS011;55168;51.120;17.024;2024-02-26T04:30:00;25.5;;;18.3;;
68319;SDS011;55168;51.120;17.024;2024-02-26T04:31:00;25.5;;;18.3;;
68319;SDS011;55168;51.120;17.024;2024-02-26T04:32:00;25.5;;;18.3;;
68319;SDS011;55168;51.120;17.024;2024-02-26T04:33:00;25.5;;;18.3;;
68319;SDS011;55168;51.120;17.024;2024-02-26T04:34:00;27.3;;;18.0;;
68319;SDS011;55168;51.120;17.024;2024-02-26T04:35:00;27.3;;;18.0;;
68319;SDS011;55168;51.120;17.024;2024-02-26T04:36:00;27.3;;;18.0;;
68319;SDS011;55168;51.120;17.024;2024-02-26T04:37:00;27.3;;;18.0;;
68319;SDS011;55168;51.120;17.024;2024-02-26T04:38:00;27.3;;;18.0;;
68319;SDS011;55168;51.120;17.024;2024-02-26T04:39:00;26.8;;;18.3;;
68319;SDS011;55168;51.120;17.024;2024-02-26T04:40:00;26.8;;;18.3;;
68319;SDS011;55168;51.120;17.024;2024-02-26T04:41:00;26.8;;;18.3;;
68319;SDS011;55168;51.120;17.024;2024-02-26T04:42:00;26.8;;;18.3;;
68319;SDS011;55168;51.120;17.024;2024-02-26T04:43:00;26.8;;;18.3;;
68319;SDS011;55168;51.120;17.024;2024-02-26T04:44:00;27.7;;;19.2;;
68319;SDS011;55168;51.120;17.024;2024-02-26T04:45:00;27.7;;;19.2;;
68319;SDS011;55168;51.120;17.024;2024-02-26T04:46:00;27.7;;;19.2;;
68319;SDS011;55168;51.120;17.024;2024-02-26T04:47:00;27.7;;;19.2;;
68319;SDS011;55168;51.120;17.024;2024-02-26T04:48:00;27.7;;;19.2;;
68319;SDS011;55168;51.120;17.024;2024-02-26T04:49:00;28.2;;;18.9;;
68319;SDS011;55168;51.120;17.024;2024-02-26T04:50:00;28.2;;;18.9;;
68319;SDS011;55168;51.120;17.024;2024-02-26T04:51:00;28.2;;;18.9;;
68319;SDS011;55168;51.120;17.024;2024-02-26T04:52:00;28.2;;;18.9;;
68319;SDS011;55168;51.120;17.024;2024-02-26T04:53:00;28.2;;;18.9;;
68319;SDS011;55168;51.120;17.024;2024-02-26T04:54:00;27.3;;;18.5;;
68319;SDS011;55168;51.120;17.024;2024-02-26T04:55:00;27.3;;;18.5;;
68319;SDS011;55168;51.120;17.024;2024-02-26T04:56:00;27.3;;;18.5;;
68319;SDS011;55168;51.120;17.024;2024-02-26T04:57:00;27.3;;;18.5;;
68319;SDS011;55168;51.120;17.024;2024-02-26T04:58:00;27.3;;;18.5;;
68319;SDS011;55168;51.120;17.024;2024-02-26T04:59:00;29.4;;;18.9;;
68319;SDS011;55168;51.120;17.024;2024-02-26T05:00:00;29.4;;;18.9;;
68319;SDS011;55168;51.120;17.024;2024-02-26T05:01:00;29.4;;;18.9;;
68319;SDS011;55168;51.120;17.024;2024-02-26T05:02:00;29.4;;;18.9;;
68319;SDS011;55168;51.120;17.024;2024-02-26T05:03:00;29.4;;;18.9;;
68319;SDS011;55168;51.120;17.024;2024-02-26T05:04:00;28.1;;;19.6;;
68319;SDS011;55168;51.120;17.024;2024-02-26T05:05:00;28.1;;;19.6;;
68319;SDS011;55168;51.120;17.024;2024-02-26T05:06:00;28.1;;;19.6;;
68319;SDS011;55168;51.120;17.024;2024-02-26T05:07:00;28.1;;;19.6;;
68319;SDS011;55168;51.120;17.024;2024-02-26T05:08:00;28.1;;;19.6;;
68319;SDS011;55168;51.120;17.024;2024-02-26T05:09:00;26.5;;;18.8;;
68319;SDS011;55168;51.120;17.024;2024-02-26T05:10:00;26.5;;;18.8;;
68319;SDS011;55168;51.120;17.024;2024-02-26T05:11:00;26.5;;;18.8;;
68319;SDS011;55168;51.120;17.024;2024-02-26T05:12:00;26.5;;;18.8;;
68319;SDS011;55168;51.120;17.024;2024-02-26T05:13:00;26.5;;;18.8;;
68319;SDS011;55168;51.120;17.024;2024-02-26T05:14:00;27.9;;;19.7;;
68319;SDS011;55168;51.120;17.024;2024-02-26T05:15:00;27.9;;;19.7;;
68319;SDS011;55168;51.120;17.024;2024-02-26T05:16:00;27.9;;;19.7;;
68319;SDS011;55168;51.120;17.024;2024-02-26T05:17:00;27.9;;;19.7;;
68319;SDS011;55168;51.120;17.024;2024-02-26T05:18:00;27.9;;;19.7;;
68319;SDS011;55168;51.120;17.024;2024-02-26T05:19:00;29.5;;;19.6;;
68319;SDS011;55168;51.120;17.024;2024-02-26T05:20:00;29.5;;;19.6;;
68319;SDS011;55168;51.120;17.024;2024-02-26T05:21:00;29.5;;;19.6;;
68319;SDS011;55168;51.120;17.024;2024-02-26T05:22:00;29.5;;;19.6;;
68319;SDS011;55168;51.120;17.024;2024-02-26T05:23:00;29.5;;;19.6;;
68319;SDS011;55168;51.120;17.024;2024-02-26T05:24:00;29.5;;;19.9;;
68319;SDS011;55168;51.120;17.024;2024-02-26T05:25:00;29.5;;;19.9;;
68319;SDS011;55168;51.120;17.024;2024-02-26T05:26:00;29.5;;;19.9;;
68319;SDS011;55168;51.120;17.024;2024-02-26T05:27:00;29.5;;;19.9;;
68319;SDS011;55168;51.120;17.024;2024-02-26T05:28:00;29.5;;;19.9;;
68319;SDS011;55168;51.120;17.024;2024-02-26T05:29:00;29.1;;;20.3;;
68319;SDS011;55168;51.120;17.024;2024-02-26T05:30:00;29.1;;;20.3;;
68319;SDS011;55168;51.120;17.024;2024-02-26T05:31:00;29.1;;;20.3;;
68319;SDS011;55168;51.120;17.024;2024-02-26T05:32:00;29.1;;;20.3;;
68319;SDS011;55168;51.120;17.024;2024-02-26T05:33:00;29.1;;;20.3;;
68319;SDS011;55168;51.120;17.024;2024-02-26T05:34:00;31.8;;;22.3;;
68319;SDS011;55168;51.120;17.024;2024-02-26T05:35:00;31.8;;;22.3;;
68319;SDS011;55168;51.120;17.024;2024-02-26T05:36:00;31.8;;;22.3;;
68319;SDS011;55168;51.120;17.024;2024-02-26T05:37:00;31.8;;;22.3;;
68319;SDS011;55168;51.120;17.024;2024-02-26T05:38:00;31.8;;;22.3;;
68319;SDS011;55168;51.120;17.024;2024-02-26T05:39:00;34.3;;;21.9;;
68319;SDS011;55168;51.120;17.024;2024-02-26T05:40:00;34.3;;;21.9;;
68319;SDS011;55168;51.120;17.024;2024-02-26T05:41:00;34.3;;;21.9;;
68319;SDS011;55168;51.120;17.024;2024-02-26T05:42:00;34.3;;;21.9;;
68319;SDS011;55168;51.120;17.024;2024-02-26T05:43:00;34.3;;;21.9;;
68319;SDS011;55168;51.120;17.024;2024-02-26T05:44:00;29.6;;;21.0;;
68319;SDS011;55168;51.120;17.024;2024-02-26T05:45:00;29.6;;;21.0;;
68319;SDS011;55168;51.120;17.024;2024-02-26T05:46:00;29.6;;;21.0;;
68319;SDS011;55168;51.120;17.024;2024-02-26T05:47:00;29.6;;;21.0;;
68319;SDS011;55168;51.120;17.024;2024-02-26T05:48:00;29.6;;;21.0;;
68319;SDS011;55168;51.120;17.024;2024-02-26T05:49:00;29.0;;;20.8;;
68319;SDS011;55168;51.120;17.024;2024-02-26T05:50:00;29.0;;;20.8;;
68319;SDS011;55168;51.120;17.024;2024-02-26T05:51:00;29.0;;;20.8;;
68319;SDS011;55168;51.120;17.024;2024-02-26T05:52:00;29.0;;;20.8;;
68319;SDS011;55168;51.120;17.024;2024-02-26T05:53:00;29.0;;;20.8;;
68319;SDS011;55168;51.120;17.024;2024-02-26T05:54:00;30.9;;;21.3;;
68319;SDS011;55168;51.120;17.024;2024-02-26T05:55:00;30.9;;;21.3;;